sensor_id;sensor_type;location;lat;lon;timestamp;P1;durP1;ratioP1;P2;durP2;ratioP2
45033;SDS011;30771;47.988;-4.186;2023-02-08T18:25:37;12.27;;;7.25;;
45033;SDS011;30771;47.988;-4.186;2023-02-08T18:28:03;12.55;;;6.88;;
45033;SDS011;30771;47.988;-4.186;2023-02-08T18:30:28;12.38;;;7.47;;
45033;SDS011;30771;47.988;-4.186;2023-02-08T18:32:54;12.95;;;7.32;;
45033;SDS011;30771;47.988;-4.186;2023-02-08T18:35:19;13.88;;;7.57;;
45033;SDS011;30771;47.988;-4.186;2023-02-08T18:37:44;12.50;;;7.28;;
45033;SDS011;30771;47.988;-4.186;2023-02-08T18:40:10;15.13;;;7.97;;
45033;SDS011;30771;47.988;-4.186;2023-02-08T18:42:35;13.15;;;7.80;;
45033;SDS011;30771;47.988;-4.186;2023-02-08T18:45:01;14.32;;;7.72;;
45033;SDS011;30771;47.988;-4.186;2023-02-08T18:47:26;13.32;;;7.15;;
45033;SDS011;30771;47.988;-4.186;2023-02-08T18:49:53;15.25;;;7.22;;
45033;SDS011;30771;47.988;-4.186;2023-02-08T18:52:19;14.10;;;7.15;;
45033;SDS011;30771;47.988;-4.186;2023-02-08T18:54:44;16.60;;;7.03;;
45033;SDS011;30771;47.988;-4.186;2023-02-08T18:57:10;13.45;;;7.90;;
45033;SDS011;30771;47.988;-4.186;2023-02-08T18:59:35;23.88;;;12.57;;
45033;SDS011;30771;47.988;-4.186;2023-02-08T19:02:01;23.70;;;13.45;;
45033;SDS011;30771;47.988;-4.186;2023-02-08T19:04:27;17.15;;;8.60;;
45033;SDS011;30771;47.988;-4.186;2023-02-08T19:06:53;23.60;;;11.60;;
45033;SDS011;30771;47.988;-4.186;2023-02-08T19:09:18;28.60;;;13.70;;
45033;SDS011;30771;47.988;-4.186;2023-02-08T19:11:43;29.55;;;12.23;;
45033;SDS011;30771;47.988;-4.186;2023-02-08T19:14:10;23.02;;;11.73;;
45033;SDS011;30771;47.988;-4.186;2023-02-08T19:16:37;17.50;;;9.18;;
45033;SDS011;30771;47.988;-4.186;2023-02-08T19:19:03;19.20;;;9.02;;
45033;SDS011;30771;47.988;-4.186;2023-02-08T19:21:31;14.90;;;8.30;;
45033;SDS011;30771;47.988;-4.186;2023-02-08T19:23:57;23.25;;;8.60;;
45033;SDS011;30771;47.988;-4.186;2023-02-08T19:26:23;25.15;;;11.23;;
45033;SDS011;30771;47.988;-4.186;2023-02-08T19:28:50;21.52;;;11.07;;
45033;SDS011;30771;47.988;-4.186;2023-02-08T19:31:18;30.70;;;12.38;;
45033;SDS011;30771;47.988;-4.186;2023-02-08T19:33:46;44.05;;;17.00;;
45033;SDS011;30771;47.988;-4.186;2023-02-08T19:36:17;35.70;;;16.95;;
45033;SDS011;30771;47.988;-4.186;2023-02-08T19:38:45;26.88;;;12.18;;
45033;SDS011;30771;47.988;-4.186;2023-02-08T19:41:23;29.73;;;13.32;;
45033;SDS011;30771;47.988;-4.186;2023-02-08T19:43:58;23.08;;;12.27;;
45033;SDS011;30771;47.988;-4.186;2023-02-08T19:46:24;23.95;;;11.38;;
45033;SDS011;30771;47.988;-4.186;2023-02-08T19:48:51;18.60;;;10.63;;
45033;SDS011;30771;47.988;-4.186;2023-02-08T19:51:18;21.35;;;10.95;;
45033;SDS011;30771;47.988;-4.186;2023-02-08T19:53:45;25.65;;;12.65;;
45033;SDS011;30771;47.988;-4.186;2023-02-08T19:56:11;30.48;;;12.45;;
45033;SDS011;30771;47.988;-4.186;2023-02-08T19:58:38;26.65;;;11.65;;
45033;SDS011;30771;47.988;-4.186;2023-02-08T20:01:07;23.05;;;12.45;;
45033;SDS011;30771;47.988;-4.186;2023-02-08T20:03:33;28.60;;;13.00;;
45033;SDS011;30771;47.988;-4.186;2023-02-08T20:06:02;23.88;;;11.40;;
45033;SDS011;30771;47.988;-4.186;2023-02-08T20:08:29;23.77;;;11.05;;
45033;SDS011;30771;47.988;-4.186;2023-02-08T20:10:54;29.02;;;15.13;;
45033;SDS011;30771;47.988;-4.186;2023-02-08T20:13:20;30.30;;;14.57;;
45033;SDS011;30771;47.988;-4.186;2023-02-08T20:15:57;23.50;;;11.30;;
45033;SDS011;30771;47.988;-4.186;2023-02-08T20:18:22;22.85;;;11.57;;
45033;SDS011;30771;47.988;-4.186;2023-02-08T20:21:00;26.08;;;11.05;;
45033;SDS011;30771;47.988;-4.186;2023-02-08T20:23:27;20.80;;;11.47;;
45033;SDS011;30771;47.988;-4.186;2023-02-08T20:26:06;15.10;;;9.95;;
45033;SDS011;30771;47.988;-4.186;2023-02-08T20:28:35;18.90;;;11.02;;
45033;SDS011;30771;47.988;-4.186;2023-02-08T20:31:07;19.45;;;11.07;;
45033;SDS011;30771;47.988;-4.186;2023-02-08T20:33:34;18.33;;;11.13;;
45033;SDS011;30771;47.988;-4.186;2023-02-08T20:36:10;23.30;;;11.65;;
45033;SDS011;30771;47.988;-4.186;2023-02-08T20:38:37;35.95;;;16.70;;
45033;SDS011;30771;47.988;-4.186;2023-02-08T20:41:04;34.38;;;18.15;;
45033;SDS011;30771;47.988;-4.186;2023-02-08T20:43:32;22.70;;;12.88;;
45033;SDS011;30771;47.988;-4.186;2023-02-08T20:45:58;23.23;;;11.65;;
45033;SDS011;30771;47.988;-4.186;2023-02-08T20:48:25;28.40;;;11.85;;
45033;SDS011;30771;47.988;-4.186;2023-02-08T20:50:50;23.20;;;12.63;;
45033;SDS011;30771;47.988;-4.186;2023-02-08T20:53:16;24.02;;;13.52;;
45033;SDS011;30771;47.988;-4.186;2023-02-08T20:55:41;34.15;;;15.07;;
45033;SDS011;30771;47.988;-4.186;2023-02-08T20:58:07;26.15;;;12.85;;
45033;SDS011;30771;47.988;-4.186;2023-02-08T21:00:32;21.95;;;12.52;;
45033;SDS011;30771;47.988;-4.186;2023-02-08T21:02:58;22.50;;;12.57;;
45033;SDS011;30771;47.988;-4.186;2023-02-08T21:05:23;21.48;;;11.93;;
45033;SDS011;30771;47.988;-4.186;2023-02-08T21:07:48;16.10;;;11.85;;
45033;SDS011;30771;47.988;-4.186;2023-02-08T21:10:14;17.77;;;12.18;;
45033;SDS011;30771;47.988;-4.186;2023-02-08T21:12:39;18.83;;;12.73;;
45033;SDS011;30771;47.988;-4.186;2023-02-08T21:15:05;18.95;;;12.43;;
45033;SDS011;30771;47.988;-4.186;2023-02-08T21:17:31;25.42;;;13.15;;
45033;SDS011;30771;47.988;-4.186;2023-02-08T21:19:56;20.98;;;14.23;;
45033;SDS011;30771;47.988;-4.186;2023-02-08T21:22:21;25.92;;;14.02;;
45033;SDS011;30771;47.988;-4.186;2023-02-08T21:24:47;26.23;;;14.40;;
45033;SDS011;30771;47.988;-4.186;2023-02-08T21:27:12;23.90;;;13.75;;
45033;SDS011;30771;47.988;-4.186;2023-02-08T21:29:37;25.90;;;15.63;;
45033;SDS011;30771;47.988;-4.186;2023-02-08T21:32:03;38.28;;;19.77;;
45033;SDS011;30771;47.988;-4.186;2023-02-08T21:34:28;45.17;;;22.15;;
45033;SDS011;30771;47.988;-4.186;2023-02-08T21:36:53;46.90;;;21.13;;
45033;SDS011;30771;47.988;-4.186;2023-02-08T21:39:20;39.58;;;20.17;;
45033;SDS011;30771;47.988;-4.186;2023-02-08T21:41:45;44.92;;;23.25;;
45033;SDS011;30771;47.988;-4.186;2023-02-08T21:44:10;31.42;;;17.90;;
45033;SDS011;30771;47.988;-4.186;2023-02-08T21:46:36;30.98;;;16.48;;
45033;SDS011;30771;47.988;-4.186;2023-02-08T21:49:01;25.83;;;16.20;;
45033;SDS011;30771;47.988;-4.186;2023-02-08T21:51:27;25.70;;;16.83;;
45033;SDS011;30771;47.988;-4.186;2023-02-08T21:53:52;32.70;;;16.80;;
45033;SDS011;30771;47.988;-4.186;2023-02-08T21:56:18;25.05;;;15.52;;
45033;SDS011;30771;47.988;-4.186;2023-02-08T21:58:43;21.90;;;14.82;;
45033;SDS011;30771;47.988;-4.186;2023-02-08T22:01:08;24.02;;;14.48;;
45033;SDS011;30771;47.988;-4.186;2023-02-08T22:03:34;24.88;;;13.57;;
45033;SDS011;30771;47.988;-4.186;2023-02-08T22:05:59;21.05;;;12.88;;
45033;SDS011;30771;47.988;-4.186;2023-02-08T22:08:25;29.48;;;15.45;;
45033;SDS011;30771;47.988;-4.186;2023-02-08T22:10:53;19.65;;;13.65;;
45033;SDS011;30771;47.988;-4.186;2023-02-08T22:13:18;21.65;;;11.95;;
45033;SDS011;30771;47.988;-4.186;2023-02-08T22:15:44;30.70;;;17.08;;
45033;SDS011;30771;47.988;-4.186;2023-02-08T22:18:09;18.60;;;12.93;;
45033;SDS011;30771;47.988;-4.186;2023-02-08T22:20:34;20.13;;;13.98;;
45033;SDS011;30771;47.988;-4.186;2023-02-08T22:23:00;24.60;;;13.25;;
45033;SDS011;30771;47.988;-4.186;2023-02-08T22:25:25;16.98;;;12.90;;
45033;SDS011;30771;47.988;-4.186;2023-02-08T22:27:50;17.17;;;11.75;;
45033;SDS011;30771;47.988;-4.186;2023-02-08T22:30:16;18.05;;;11.82;;
45033;SDS011;30771;47.988;-4.186;2023-02-08T22:32:43;14.75;;;11.60;;
45033;SDS011;30771;47.988;-4.186;2023-02-08T22:35:10;17.45;;;11.82;;
45033;SDS011;30771;47.988;-4.186;2023-02-08T22:37:36;15.75;;;10.90;;
45033;SDS011;30771;47.988;-4.186;2023-02-08T22:40:02;13.25;;;10.70;;
45033;SDS011;30771;47.988;-4.186;2023-02-08T22:42:29;16.38;;;10.45;;
45033;SDS011;30771;47.988;-4.186;2023-02-08T22:44:55;18.80;;;11.27;;
45033;SDS011;30771;47.988;-4.186;2023-02-08T22:47:20;14.68;;;9.88;;
45033;SDS011;30771;47.988;-4.186;2023-02-08T22:49:46;13.68;;;9.65;;
45033;SDS011;30771;47.988;-4.186;2023-02-08T22:52:12;13.38;;;9.93;;
45033;SDS011;30771;47.988;-4.186;2023-02-08T22:54:38;16.15;;;10.10;;
45033;SDS011;30771;47.988;-4.186;2023-02-08T22:57:06;12.27;;;8.95;;
45033;SDS011;30771;47.988;-4.186;2023-02-08T22:59:32;15.35;;;9.88;;
45033;SDS011;30771;47.988;-4.186;2023-02-08T23:01:58;12.57;;;9.05;;
45033;SDS011;30771;47.988;-4.186;2023-02-08T23:04:23;13.38;;;9.20;;
45033;SDS011;30771;47.988;-4.186;2023-02-08T23:06:49;11.23;;;8.60;;
45033;SDS011;30771;47.988;-4.186;2023-02-08T23:09:15;13.38;;;8.98;;
45033;SDS011;30771;47.988;-4.186;2023-02-08T23:11:40;11.43;;;8.20;;
45033;SDS011;30771;47.988;-4.186;2023-02-08T23:14:06;10.65;;;7.88;;
45033;SDS011;30771;47.988;-4.186;2023-02-08T23:16:31;10.52;;;7.93;;
45033;SDS011;30771;47.988;-4.186;2023-02-08T23:18:56;12.88;;;8.10;;
45033;SDS011;30771;47.988;-4.186;2023-02-08T23:21:21;11.90;;;7.97;;
45033;SDS011;30771;47.988;-4.186;2023-02-08T23:23:47;12.18;;;7.78;;
45033;SDS011;30771;47.988;-4.186;2023-02-08T23:26:17;16.17;;;8.48;;
45033;SDS011;30771;47.988;-4.186;2023-02-08T23:28:44;14.00;;;8.48;;
45033;SDS011;30771;47.988;-4.186;2023-02-08T23:31:10;12.82;;;8.50;;
45033;SDS011;30771;47.988;-4.186;2023-02-08T23:33:37;11.90;;;7.60;;
45033;SDS011;30771;47.988;-4.186;2023-02-08T23:36:05;10.50;;;7.85;;
45033;SDS011;30771;47.988;-4.186;2023-02-08T23:38:34;12.98;;;7.70;;
45033;SDS011;30771;47.988;-4.186;2023-02-08T23:41:03;11.63;;;8.27;;
45033;SDS011;30771;47.988;-4.186;2023-02-08T23:43:29;13.40;;;8.77;;
45033;SDS011;30771;47.988;-4.186;2023-02-08T23:45:55;10.70;;;7.75;;
45033;SDS011;30771;47.988;-4.186;2023-02-08T23:48:20;12.88;;;8.57;;
45033;SDS011;30771;47.988;-4.186;2023-02-08T23:50:54;14.05;;;8.38;;
45033;SDS011;30771;47.988;-4.186;2023-02-08T23:53:20;12.20;;;8.20;;
45033;SDS011;30771;47.988;-4.186;2023-02-08T23:55:46;12.93;;;8.15;;
45033;SDS011;30771;47.988;-4.186;2023-02-08T23:58:11;14.85;;;8.57;;
